sensor_id;sensor_type;location;lat;lon;timestamp;temperature;humidity
871;DHT22;422;51.280;7.236;2022-09-17T00:01:22;10.30;1.00
871;DHT22;422;51.280;7.236;2022-09-17T00:03:53;10.20;1.00
871;DHT22;422;51.280;7.236;2022-09-17T00:06:21;10.20;1.00
871;DHT22;422;51.280;7.236;2022-09-17T00:08:49;10.10;1.00
871;DHT22;422;51.280;7.236;2022-09-17T00:11:18;10.10;87.90
871;DHT22;422;51.280;7.236;2022-09-17T00:13:49;10.10;99.90
871;DHT22;422;51.280;7.236;2022-09-17T00:16:23;10.10;99.90
871;DHT22;422;51.280;7.236;2022-09-17T00:18:50;10.00;99.90
871;DHT22;422;51.280;7.236;2022-09-17T00:21:18;10.10;99.90
871;DHT22;422;51.280;7.236;2022-09-17T00:23:46;10.10;99.90
871;DHT22;422;51.280;7.236;2022-09-17T00:26:13;10.20;99.90
871;DHT22;422;51.280;7.236;2022-09-17T00:28:41;10.10;99.90
871;DHT22;422;51.280;7.236;2022-09-17T00:31:17;10.10;99.90
871;DHT22;422;51.280;7.236;2022-09-17T00:33:45;10.10;99.90
871;DHT22;422;51.280;7.236;2022-09-17T00:36:15;10.10;99.90
871;DHT22;422;51.280;7.236;2022-09-17T00:38:42;10.00;99.90
871;DHT22;422;51.280;7.236;2022-09-17T00:41:09;10.00;99.90
871;DHT22;422;51.280;7.236;2022-09-17T00:43:40;10.00;99.90
871;DHT22;422;51.280;7.236;2022-09-17T00:46:17;10.00;99.90
871;DHT22;422;51.280;7.236;2022-09-17T00:48:48;10.00;99.90
871;DHT22;422;51.280;7.236;2022-09-17T00:51:19;10.00;99.90
871;DHT22;422;51.280;7.236;2022-09-17T00:53:47;10.00;99.90
871;DHT22;422;51.280;7.236;2022-09-17T00:56:20;10.00;99.90
871;DHT22;422;51.280;7.236;2022-09-17T00:58:49;10.00;99.90
871;DHT22;422;51.280;7.236;2022-09-17T01:01:18;10.00;99.90
871;DHT22;422;51.280;7.236;2022-09-17T01:03:45;10.00;99.90
871;DHT22;422;51.280;7.236;2022-09-17T01:06:22;10.00;99.90
871;DHT22;422;51.280;7.236;2022-09-17T01:09:03;10.10;99.90
871;DHT22;422;51.280;7.236;2022-09-17T01:11:51;10.10;99.90
871;DHT22;422;51.280;7.236;2022-09-17T01:14:34;10.10;99.90
871;DHT22;422;51.280;7.236;2022-09-17T01:17:11;10.00;99.90
871;DHT22;422;51.280;7.236;2022-09-17T01:22:53;10.00;99.90
871;DHT22;422;51.280;7.236;2022-09-17T01:25:22;10.00;99.90
871;DHT22;422;51.280;7.236;2022-09-17T01:33:55;10.10;99.90
871;DHT22;422;51.280;7.236;2022-09-17T01:36:37;10.00;99.90
871;DHT22;422;51.280;7.236;2022-09-17T01:39:15;10.00;99.90
871;DHT22;422;51.280;7.236;2022-09-17T01:41:50;10.10;99.90
871;DHT22;422;51.280;7.236;2022-09-17T01:44:27;10.00;99.90
871;DHT22;422;51.280;7.236;2022-09-17T01:47:02;10.00;99.90
871;DHT22;422;51.280;7.236;2022-09-17T01:49:32;10.10;99.90
871;DHT22;422;51.280;7.236;2022-09-17T01:52:03;10.10;99.90
871;DHT22;422;51.280;7.236;2022-09-17T01:54:34;10.10;99.90
871;DHT22;422;51.280;7.236;2022-09-17T01:57:07;10.20;99.90
871;DHT22;422;51.280;7.236;2022-09-17T01:59:39;10.10;99.90
871;DHT22;422;51.280;7.236;2022-09-17T02:02:16;10.20;99.90
871;DHT22;422;51.280;7.236;2022-09-17T02:04:53;10.20;99.90
871;DHT22;422;51.280;7.236;2022-09-17T02:07:24;10.30;99.90
871;DHT22;422;51.280;7.236;2022-09-17T02:09:56;10.30;99.90
871;DHT22;422;51.280;7.236;2022-09-17T02:12:29;10.20;99.90
871;DHT22;422;51.280;7.236;2022-09-17T02:15:00;10.20;99.90
871;DHT22;422;51.280;7.236;2022-09-17T02:17:34;10.20;99.90
871;DHT22;422;51.280;7.236;2022-09-17T02:20:03;10.10;99.90
871;DHT22;422;51.280;7.236;2022-09-17T02:22:38;10.10;99.90
871;DHT22;422;51.280;7.236;2022-09-17T02:25:13;10.10;99.90
871;DHT22;422;51.280;7.236;2022-09-17T02:27:49;10.10;99.90
871;DHT22;422;51.280;7.236;2022-09-17T02:30:18;10.10;99.90
871;DHT22;422;51.280;7.236;2022-09-17T02:32:49;10.10;99.90
871;DHT22;422;51.280;7.236;2022-09-17T02:35:16;10.20;99.90
871;DHT22;422;51.280;7.236;2022-09-17T02:37:44;10.20;99.90
871;DHT22;422;51.280;7.236;2022-09-17T02:40:13;10.20;99.90
871;DHT22;422;51.280;7.236;2022-09-17T02:42:52;10.20;99.90
871;DHT22;422;51.280;7.236;2022-09-17T02:45:35;10.10;99.90
871;DHT22;422;51.280;7.236;2022-09-17T02:48:18;10.20;99.90
871;DHT22;422;51.280;7.236;2022-09-17T02:51:02;10.20;99.90
871;DHT22;422;51.280;7.236;2022-09-17T02:53:37;10.10;99.90
871;DHT22;422;51.280;7.236;2022-09-17T02:56:12;10.20;99.90
871;DHT22;422;51.280;7.236;2022-09-17T02:58:52;10.20;99.90
871;DHT22;422;51.280;7.236;2022-09-17T03:01:24;10.20;99.90
871;DHT22;422;51.280;7.236;2022-09-17T03:03:57;10.20;99.90
871;DHT22;422;51.280;7.236;2022-09-17T03:06:26;10.20;99.90
871;DHT22;422;51.280;7.236;2022-09-17T03:08:53;10.20;99.90
871;DHT22;422;51.280;7.236;2022-09-17T03:11:22;10.10;99.90
871;DHT22;422;51.280;7.236;2022-09-17T03:13:49;10.10;99.90
871;DHT22;422;51.280;7.236;2022-09-17T03:16:16;10.10;99.90
871;DHT22;422;51.280;7.236;2022-09-17T03:18:44;10.10;99.90
871;DHT22;422;51.280;7.236;2022-09-17T03:21:12;10.10;99.90
871;DHT22;422;51.280;7.236;2022-09-17T03:23:41;10.10;99.90
871;DHT22;422;51.280;7.236;2022-09-17T03:26:10;10.10;99.90
871;DHT22;422;51.280;7.236;2022-09-17T03:28:37;10.20;99.90
871;DHT22;422;51.280;7.236;2022-09-17T03:31:06;10.10;99.90
871;DHT22;422;51.280;7.236;2022-09-17T03:33:34;10.10;99.90
871;DHT22;422;51.280;7.236;2022-09-17T03:36:01;10.00;99.90
871;DHT22;422;51.280;7.236;2022-09-17T03:38:30;10.00;99.90
871;DHT22;422;51.280;7.236;2022-09-17T03:41:00;10.00;99.90
871;DHT22;422;51.280;7.236;2022-09-17T03:43:27;9.90;99.90
871;DHT22;422;51.280;7.236;2022-09-17T03:45:55;10.00;99.90
871;DHT22;422;51.280;7.236;2022-09-17T03:48:22;9.90;99.90
871;DHT22;422;51.280;7.236;2022-09-17T03:50:49;9.90;99.90
871;DHT22;422;51.280;7.236;2022-09-17T03:53:21;9.90;99.90
871;DHT22;422;51.280;7.236;2022-09-17T03:55:52;9.90;99.90
871;DHT22;422;51.280;7.236;2022-09-17T03:58:20;10.00;99.90
871;DHT22;422;51.280;7.236;2022-09-17T04:00:51;9.90;99.90
871;DHT22;422;51.280;7.236;2022-09-17T04:03:19;9.90;99.90
871;DHT22;422;51.280;7.236;2022-09-17T04:05:47;9.90;99.90
871;DHT22;422;51.280;7.236;2022-09-17T04:08:20;9.90;99.90
871;DHT22;422;51.280;7.236;2022-09-17T04:10:48;9.90;99.90
871;DHT22;422;51.280;7.236;2022-09-17T04:13:18;9.90;99.90
871;DHT22;422;51.280;7.236;2022-09-17T04:15:45;10.00;99.90
871;DHT22;422;51.280;7.236;2022-09-17T04:18:13;9.90;99.90
871;DHT22;422;51.280;7.236;2022-09-17T04:20:41;9.90;99.90
871;DHT22;422;51.280;7.236;2022-09-17T04:23:10;10.00;99.90
871;DHT22;422;51.280;7.236;2022-09-17T04:25:37;9.90;70.40
871;DHT22;422;51.280;7.236;2022-09-17T04:28:07;9.90;1.00
871;DHT22;422;51.280;7.236;2022-09-17T04:30:35;9.80;1.00
871;DHT22;422;51.280;7.236;2022-09-17T04:33:03;9.80;1.00
871;DHT22;422;51.280;7.236;2022-09-17T04:35:30;9.80;1.00
871;DHT22;422;51.280;7.236;2022-09-17T04:37:58;9.80;1.00
871;DHT22;422;51.280;7.236;2022-09-17T04:40:25;9.80;1.00
871;DHT22;422;51.280;7.236;2022-09-17T04:42:53;9.80;1.00
871;DHT22;422;51.280;7.236;2022-09-17T04:45:21;9.80;1.00
871;DHT22;422;51.280;7.236;2022-09-17T04:47:50;9.80;99.90
871;DHT22;422;51.280;7.236;2022-09-17T04:50:18;9.80;1.00
871;DHT22;422;51.280;7.236;2022-09-17T04:52:48;9.80;1.00
871;DHT22;422;51.280;7.236;2022-09-17T04:55:15;9.80;1.00
871;DHT22;422;51.280;7.236;2022-09-17T04:57:45;9.80;1.00
871;DHT22;422;51.280;7.236;2022-09-17T05:00:13;9.80;1.00
871;DHT22;422;51.280;7.236;2022-09-17T05:02:44;9.80;1.00
871;DHT22;422;51.280;7.236;2022-09-17T05:05:13;9.80;1.00
871;DHT22;422;51.280;7.236;2022-09-17T05:07:41;9.90;1.00
871;DHT22;422;51.280;7.236;2022-09-17T05:10:10;9.80;1.00
871;DHT22;422;51.280;7.236;2022-09-17T05:12:38;9.90;52.10
871;DHT22;422;51.280;7.236;2022-09-17T05:15:06;9.90;97.20
871;DHT22;422;51.280;7.236;2022-09-17T05:17:36;9.90;99.90
871;DHT22;422;51.280;7.236;2022-09-17T05:20:03;9.90;99.90
871;DHT22;422;51.280;7.236;2022-09-17T05:22:32;9.90;96.60
871;DHT22;422;51.280;7.236;2022-09-17T05:25:01;10.00;97.20
871;DHT22;422;51.280;7.236;2022-09-17T05:27:28;9.90;1.00
871;DHT22;422;51.280;7.236;2022-09-17T05:29:55;10.00;1.00
871;DHT22;422;51.280;7.236;2022-09-17T05:32:23;10.00;1.00
871;DHT22;422;51.280;7.236;2022-09-17T05:34:50;10.00;1.00
871;DHT22;422;51.280;7.236;2022-09-17T05:37:22;10.00;1.00
871;DHT22;422;51.280;7.236;2022-09-17T05:39:51;10.00;1.00
871;DHT22;422;51.280;7.236;2022-09-17T05:42:18;10.10;1.00
871;DHT22;422;51.280;7.236;2022-09-17T05:44:45;10.10;99.90
871;DHT22;422;51.280;7.236;2022-09-17T05:47:13;10.00;99.90
871;DHT22;422;51.280;7.236;2022-09-17T05:49:42;10.00;1.00
871;DHT22;422;51.280;7.236;2022-09-17T05:52:11;10.00;99.90
871;DHT22;422;51.280;7.236;2022-09-17T05:54:38;10.00;1.00
871;DHT22;422;51.280;7.236;2022-09-17T05:57:07;10.10;1.00
871;DHT22;422;51.280;7.236;2022-09-17T05:59:34;10.10;99.90
871;DHT22;422;51.280;7.236;2022-09-17T06:02:02;10.20;99.90
871;DHT22;422;51.280;7.236;2022-09-17T06:04:37;10.20;1.00
871;DHT22;422;51.280;7.236;2022-09-17T06:07:05;10.30;1.00
871;DHT22;422;51.280;7.236;2022-09-17T06:09:34;10.40;1.00
871;DHT22;422;51.280;7.236;2022-09-17T06:12:01;10.50;1.00
871;DHT22;422;51.280;7.236;2022-09-17T06:14:33;10.50;1.00
871;DHT22;422;51.280;7.236;2022-09-17T06:17:00;10.60;1.00
871;DHT22;422;51.280;7.236;2022-09-17T06:19:28;10.60;1.00
871;DHT22;422;51.280;7.236;2022-09-17T06:21:55;10.60;1.00
871;DHT22;422;51.280;7.236;2022-09-17T06:24:22;10.70;1.00
871;DHT22;422;51.280;7.236;2022-09-17T06:26:52;10.70;99.90
871;DHT22;422;51.280;7.236;2022-09-17T06:29:20;10.70;99.90
871;DHT22;422;51.280;7.236;2022-09-17T06:31:48;10.90;99.90
871;DHT22;422;51.280;7.236;2022-09-17T06:34:16;10.90;99.90
871;DHT22;422;51.280;7.236;2022-09-17T06:36:44;11.00;99.90
871;DHT22;422;51.280;7.236;2022-09-17T06:39:11;11.10;12.40
871;DHT22;422;51.280;7.236;2022-09-17T06:41:40;11.10;1.00
871;DHT22;422;51.280;7.236;2022-09-17T06:44:08;11.10;1.00
871;DHT22;422;51.280;7.236;2022-09-17T06:46:35;11.00;1.00
871;DHT22;422;51.280;7.236;2022-09-17T06:49:06;10.90;1.00
871;DHT22;422;51.280;7.236;2022-09-17T06:51:33;10.90;1.00
871;DHT22;422;51.280;7.236;2022-09-17T06:54:00;10.80;1.00
871;DHT22;422;51.280;7.236;2022-09-17T06:56:28;10.80;1.00
871;DHT22;422;51.280;7.236;2022-09-17T06:58:55;10.70;1.00
871;DHT22;422;51.280;7.236;2022-09-17T07:01:24;10.70;94.40
871;DHT22;422;51.280;7.236;2022-09-17T07:03:51;10.60;1.00
871;DHT22;422;51.280;7.236;2022-09-17T07:06:20;10.60;46.00
871;DHT22;422;51.280;7.236;2022-09-17T07:08:48;10.70;99.90
871;DHT22;422;51.280;7.236;2022-09-17T07:11:15;10.60;33.00
871;DHT22;422;51.280;7.236;2022-09-17T07:13:42;10.50;99.90
871;DHT22;422;51.280;7.236;2022-09-17T07:16:15;10.60;99.90
871;DHT22;422;51.280;7.236;2022-09-17T07:18:42;10.60;99.90
871;DHT22;422;51.280;7.236;2022-09-17T07:21:10;10.50;99.90
871;DHT22;422;51.280;7.236;2022-09-17T07:23:41;10.60;99.90
871;DHT22;422;51.280;7.236;2022-09-17T07:26:13;10.70;99.90
871;DHT22;422;51.280;7.236;2022-09-17T07:28:44;10.70;99.90
871;DHT22;422;51.280;7.236;2022-09-17T07:31:12;10.90;28.90
871;DHT22;422;51.280;7.236;2022-09-17T07:33:40;11.20;99.90
871;DHT22;422;51.280;7.236;2022-09-17T07:36:13;11.30;1.00
871;DHT22;422;51.280;7.236;2022-09-17T07:38:44;11.20;1.00
871;DHT22;422;51.280;7.236;2022-09-17T07:41:13;11.60;1.00
871;DHT22;422;51.280;7.236;2022-09-17T07:43:41;11.80;1.00
871;DHT22;422;51.280;7.236;2022-09-17T07:46:12;12.40;1.00
871;DHT22;422;51.280;7.236;2022-09-17T07:48:40;13.00;1.00
871;DHT22;422;51.280;7.236;2022-09-17T07:51:12;13.30;1.00
871;DHT22;422;51.280;7.236;2022-09-17T07:53:40;13.20;99.90
871;DHT22;422;51.280;7.236;2022-09-17T07:56:08;13.80;99.90
871;DHT22;422;51.280;7.236;2022-09-17T07:58:35;14.30;99.90
871;DHT22;422;51.280;7.236;2022-09-17T08:01:05;14.20;99.90
871;DHT22;422;51.280;7.236;2022-09-17T08:03:33;13.50;99.90
871;DHT22;422;51.280;7.236;2022-09-17T08:06:06;13.30;99.90
871;DHT22;422;51.280;7.236;2022-09-17T08:08:37;13.40;99.90
871;DHT22;422;51.280;7.236;2022-09-17T08:11:06;13.30;99.90
871;DHT22;422;51.280;7.236;2022-09-17T08:13:37;13.40;99.90
871;DHT22;422;51.280;7.236;2022-09-17T08:16:07;13.50;99.90
871;DHT22;422;51.280;7.236;2022-09-17T08:18:35;13.70;99.90
871;DHT22;422;51.280;7.236;2022-09-17T08:21:04;14.10;99.90
871;DHT22;422;51.280;7.236;2022-09-17T08:23:34;14.20;99.90
871;DHT22;422;51.280;7.236;2022-09-17T08:26:02;14.40;99.90
871;DHT22;422;51.280;7.236;2022-09-17T08:28:30;14.80;99.90
871;DHT22;422;51.280;7.236;2022-09-17T08:31:01;14.80;99.90
871;DHT22;422;51.280;7.236;2022-09-17T08:33:30;14.80;99.90
871;DHT22;422;51.280;7.236;2022-09-17T08:35:59;15.00;99.90
871;DHT22;422;51.280;7.236;2022-09-17T08:38:28;14.90;99.90
871;DHT22;422;51.280;7.236;2022-09-17T08:41:06;14.70;99.90
871;DHT22;422;51.280;7.236;2022-09-17T08:43:41;14.20;99.90
871;DHT22;422;51.280;7.236;2022-09-17T08:46:11;14.20;99.90
871;DHT22;422;51.280;7.236;2022-09-17T08:48:40;14.10;99.90
871;DHT22;422;51.280;7.236;2022-09-17T08:51:20;14.70;99.90
871;DHT22;422;51.280;7.236;2022-09-17T08:54:05;15.60;99.90
871;DHT22;422;51.280;7.236;2022-09-17T08:56:35;15.80;99.90
871;DHT22;422;51.280;7.236;2022-09-17T08:59:11;15.50;99.90
871;DHT22;422;51.280;7.236;2022-09-17T09:01:50;15.70;99.90
871;DHT22;422;51.280;7.236;2022-09-17T09:04:34;15.10;99.90
871;DHT22;422;51.280;7.236;2022-09-17T09:07:08;14.60;99.90
871;DHT22;422;51.280;7.236;2022-09-17T09:09:39;14.60;99.90
871;DHT22;422;51.280;7.236;2022-09-17T09:12:21;15.10;99.90
871;DHT22;422;51.280;7.236;2022-09-17T09:14:56;15.10;99.90
871;DHT22;422;51.280;7.236;2022-09-17T09:17:33;15.50;99.90
871;DHT22;422;51.280;7.236;2022-09-17T09:20:03;15.20;99.90
871;DHT22;422;51.280;7.236;2022-09-17T09:22:39;15.00;99.90
871;DHT22;422;51.280;7.236;2022-09-17T09:25:19;15.20;99.90
871;DHT22;422;51.280;7.236;2022-09-17T09:28:01;15.80;99.90
871;DHT22;422;51.280;7.236;2022-09-17T09:30:40;16.80;99.90
871;DHT22;422;51.280;7.236;2022-09-17T09:33:16;16.50;99.90
871;DHT22;422;51.280;7.236;2022-09-17T09:35:46;16.80;99.90
871;DHT22;422;51.280;7.236;2022-09-17T09:38:20;16.60;99.90
871;DHT22;422;51.280;7.236;2022-09-17T09:40:54;16.50;99.90
871;DHT22;422;51.280;7.236;2022-09-17T09:43:27;16.70;99.90
871;DHT22;422;51.280;7.236;2022-09-17T09:49:00;16.20;99.90
871;DHT22;422;51.280;7.236;2022-09-17T09:51:35;17.00;99.90
871;DHT22;422;51.280;7.236;2022-09-17T09:54:16;16.60;99.90
871;DHT22;422;51.280;7.236;2022-09-17T09:56:53;16.20;99.90
871;DHT22;422;51.280;7.236;2022-09-17T09:59:21;14.80;99.90
871;DHT22;422;51.280;7.236;2022-09-17T10:01:49;14.40;99.90
871;DHT22;422;51.280;7.236;2022-09-17T10:04:20;14.50;99.90
871;DHT22;422;51.280;7.236;2022-09-17T10:06:50;14.50;99.90
871;DHT22;422;51.280;7.236;2022-09-17T10:09:18;14.20;99.90
871;DHT22;422;51.280;7.236;2022-09-17T10:12:05;13.90;99.90
871;DHT22;422;51.280;7.236;2022-09-17T10:14:42;14.20;99.90
871;DHT22;422;51.280;7.236;2022-09-17T10:17:14;15.10;99.90
871;DHT22;422;51.280;7.236;2022-09-17T10:20:25;15.60;99.90
871;DHT22;422;51.280;7.236;2022-09-17T10:22:52;16.20;99.90
871;DHT22;422;51.280;7.236;2022-09-17T10:25:31;15.60;99.90
871;DHT22;422;51.280;7.236;2022-09-17T10:28:04;15.40;99.90
871;DHT22;422;51.280;7.236;2022-09-17T10:30:55;14.40;99.90
871;DHT22;422;51.280;7.236;2022-09-17T10:33:24;13.40;99.90
871;DHT22;422;51.280;7.236;2022-09-17T10:36:01;12.60;99.90
871;DHT22;422;51.280;7.236;2022-09-17T10:38:34;12.30;99.90
871;DHT22;422;51.280;7.236;2022-09-17T10:41:10;12.00;99.90
871;DHT22;422;51.280;7.236;2022-09-17T10:43:39;12.10;99.90
871;DHT22;422;51.280;7.236;2022-09-17T10:46:13;12.30;99.90
871;DHT22;422;51.280;7.236;2022-09-17T10:48:43;12.40;99.90
871;DHT22;422;51.280;7.236;2022-09-17T10:51:23;12.30;99.90
871;DHT22;422;51.280;7.236;2022-09-17T10:56:59;12.30;99.90
871;DHT22;422;51.280;7.236;2022-09-17T10:59:48;12.30;99.90
871;DHT22;422;51.280;7.236;2022-09-17T11:09:02;13.90;99.90
871;DHT22;422;51.280;7.236;2022-09-17T11:11:43;14.90;99.90
871;DHT22;422;51.280;7.236;2022-09-17T11:14:24;15.70;99.90
871;DHT22;422;51.280;7.236;2022-09-17T11:17:11;16.40;99.90
871;DHT22;422;51.280;7.236;2022-09-17T11:19:47;16.10;99.90
871;DHT22;422;51.280;7.236;2022-09-17T11:22:22;15.60;99.90
871;DHT22;422;51.280;7.236;2022-09-17T11:25:27;15.00;99.90
871;DHT22;422;51.280;7.236;2022-09-17T11:28:04;13.80;99.90
871;DHT22;422;51.280;7.236;2022-09-17T11:30:46;13.60;99.90
871;DHT22;422;51.280;7.236;2022-09-17T11:33:32;13.50;99.90
871;DHT22;422;51.280;7.236;2022-09-17T11:36:11;13.70;99.90
871;DHT22;422;51.280;7.236;2022-09-17T11:38:41;14.10;99.90
871;DHT22;422;51.280;7.236;2022-09-17T11:41:15;14.10;99.90
871;DHT22;422;51.280;7.236;2022-09-17T11:43:49;14.00;99.90
871;DHT22;422;51.280;7.236;2022-09-17T11:46:20;13.10;99.90
871;DHT22;422;51.280;7.236;2022-09-17T11:48:53;12.00;99.90
871;DHT22;422;51.280;7.236;2022-09-17T11:51:27;11.40;99.90
871;DHT22;422;51.280;7.236;2022-09-17T11:54:00;10.90;99.90
871;DHT22;422;51.280;7.236;2022-09-17T11:56:35;11.00;1.00
871;DHT22;422;51.280;7.236;2022-09-17T11:59:11;10.80;1.00
871;DHT22;422;51.280;7.236;2022-09-17T12:01:45;10.70;1.00
871;DHT22;422;51.280;7.236;2022-09-17T12:04:36;10.80;1.00
871;DHT22;422;51.280;7.236;2022-09-17T12:07:24;11.20;1.00
871;DHT22;422;51.280;7.236;2022-09-17T12:09:58;11.80;1.00
871;DHT22;422;51.280;7.236;2022-09-17T12:12:30;12.40;1.00
871;DHT22;422;51.280;7.236;2022-09-17T12:15:03;13.20;1.00
871;DHT22;422;51.280;7.236;2022-09-17T12:17:38;13.70;1.00
871;DHT22;422;51.280;7.236;2022-09-17T12:20:20;13.40;99.90
871;DHT22;422;51.280;7.236;2022-09-17T12:22:50;13.30;99.90
871;DHT22;422;51.280;7.236;2022-09-17T12:25:25;13.30;99.90
871;DHT22;422;51.280;7.236;2022-09-17T12:28:05;13.30;99.90
871;DHT22;422;51.280;7.236;2022-09-17T12:30:39;13.20;99.90
871;DHT22;422;51.280;7.236;2022-09-17T12:33:18;13.60;99.90
871;DHT22;422;51.280;7.236;2022-09-17T12:41:55;15.10;99.90
871;DHT22;422;51.280;7.236;2022-09-17T12:44:57;14.90;99.90
871;DHT22;422;51.280;7.236;2022-09-17T12:48:09;14.90;99.90
871;DHT22;422;51.280;7.236;2022-09-17T12:50:49;14.20;99.90
871;DHT22;422;51.280;7.236;2022-09-17T12:53:24;13.60;99.90
871;DHT22;422;51.280;7.236;2022-09-17T12:56:13;13.60;99.90
871;DHT22;422;51.280;7.236;2022-09-17T12:59:06;13.30;99.90
871;DHT22;422;51.280;7.236;2022-09-17T13:01:42;13.00;99.90
871;DHT22;422;51.280;7.236;2022-09-17T13:04:27;12.70;99.90
871;DHT22;422;51.280;7.236;2022-09-17T13:10:08;13.90;99.90
871;DHT22;422;51.280;7.236;2022-09-17T13:12:39;14.60;99.90
871;DHT22;422;51.280;7.236;2022-09-17T13:15:44;15.30;99.90
871;DHT22;422;51.280;7.236;2022-09-17T13:18:19;15.60;99.90
871;DHT22;422;51.280;7.236;2022-09-17T13:21:09;16.20;99.90
871;DHT22;422;51.280;7.236;2022-09-17T13:23:41;16.30;99.90
871;DHT22;422;51.280;7.236;2022-09-17T13:26:14;16.30;99.90
871;DHT22;422;51.280;7.236;2022-09-17T13:28:44;16.60;99.90
871;DHT22;422;51.280;7.236;2022-09-17T13:31:18;16.00;99.90
871;DHT22;422;51.280;7.236;2022-09-17T13:33:53;16.50;99.90
871;DHT22;422;51.280;7.236;2022-09-17T13:36:46;16.80;99.90
871;DHT22;422;51.280;7.236;2022-09-17T13:39:34;16.50;99.90
871;DHT22;422;51.280;7.236;2022-09-17T13:42:06;16.50;99.90
871;DHT22;422;51.280;7.236;2022-09-17T13:44:37;16.40;99.90
871;DHT22;422;51.280;7.236;2022-09-17T13:47:18;16.50;99.90
871;DHT22;422;51.280;7.236;2022-09-17T13:49:58;16.40;99.90
871;DHT22;422;51.280;7.236;2022-09-17T13:52:40;16.60;99.90
871;DHT22;422;51.280;7.236;2022-09-17T13:55:29;16.90;99.90
871;DHT22;422;51.280;7.236;2022-09-17T13:57:57;17.10;99.90
871;DHT22;422;51.280;7.236;2022-09-17T14:00:46;17.40;99.90
871;DHT22;422;51.280;7.236;2022-09-17T14:03:49;16.20;99.90
871;DHT22;422;51.280;7.236;2022-09-17T14:06:47;15.50;99.90
871;DHT22;422;51.280;7.236;2022-09-17T14:09:48;15.10;99.90
871;DHT22;422;51.280;7.236;2022-09-17T14:12:53;14.50;99.90
871;DHT22;422;51.280;7.236;2022-09-17T14:16:00;14.00;99.90
871;DHT22;422;51.280;7.236;2022-09-17T14:18:41;11.90;99.90
871;DHT22;422;51.280;7.236;2022-09-17T14:21:14;11.10;99.90
871;DHT22;422;51.280;7.236;2022-09-17T14:23:49;10.80;99.90
871;DHT22;422;51.280;7.236;2022-09-17T14:29:26;11.20;1.00
871;DHT22;422;51.280;7.236;2022-09-17T14:31:57;11.30;1.00
871;DHT22;422;51.280;7.236;2022-09-17T14:34:25;11.50;1.00
871;DHT22;422;51.280;7.236;2022-09-17T14:36:53;11.90;1.00
871;DHT22;422;51.280;7.236;2022-09-17T14:39:25;12.20;1.00
871;DHT22;422;51.280;7.236;2022-09-17T14:41:53;12.90;1.00
871;DHT22;422;51.280;7.236;2022-09-17T14:44:23;13.60;99.90
871;DHT22;422;51.280;7.236;2022-09-17T14:46:55;14.10;99.90
871;DHT22;422;51.280;7.236;2022-09-17T14:49:26;14.40;99.90
871;DHT22;422;51.280;7.236;2022-09-17T14:51:57;14.50;99.90
871;DHT22;422;51.280;7.236;2022-09-17T14:54:29;14.90;99.90
871;DHT22;422;51.280;7.236;2022-09-17T14:57:00;14.80;99.90
871;DHT22;422;51.280;7.236;2022-09-17T14:59:42;15.00;99.90
871;DHT22;422;51.280;7.236;2022-09-17T15:02:27;15.20;99.90
871;DHT22;422;51.280;7.236;2022-09-17T15:04:55;14.80;99.90
871;DHT22;422;51.280;7.236;2022-09-17T15:07:24;14.00;99.90
871;DHT22;422;51.280;7.236;2022-09-17T15:09:53;13.80;99.90
871;DHT22;422;51.280;7.236;2022-09-17T15:12:26;13.50;99.90
871;DHT22;422;51.280;7.236;2022-09-17T15:14:57;13.20;99.90
871;DHT22;422;51.280;7.236;2022-09-17T15:17:25;13.00;99.90
871;DHT22;422;51.280;7.236;2022-09-17T15:19:55;12.90;99.90
871;DHT22;422;51.280;7.236;2022-09-17T15:22:26;12.80;99.90
871;DHT22;422;51.280;7.236;2022-09-17T15:24:57;13.00;99.90
871;DHT22;422;51.280;7.236;2022-09-17T15:27:35;13.50;99.90
871;DHT22;422;51.280;7.236;2022-09-17T15:30:05;13.80;99.90
871;DHT22;422;51.280;7.236;2022-09-17T15:32:37;14.20;99.90
871;DHT22;422;51.280;7.236;2022-09-17T15:35:23;14.00;99.90
871;DHT22;422;51.280;7.236;2022-09-17T15:37:56;14.10;99.90
871;DHT22;422;51.280;7.236;2022-09-17T15:40:28;14.30;99.90
871;DHT22;422;51.280;7.236;2022-09-17T15:43:04;14.20;99.90
871;DHT22;422;51.280;7.236;2022-09-17T15:45:34;14.10;99.90
871;DHT22;422;51.280;7.236;2022-09-17T15:48:15;14.10;99.90
871;DHT22;422;51.280;7.236;2022-09-17T15:50:51;13.80;99.90
871;DHT22;422;51.280;7.236;2022-09-17T15:53:23;13.60;99.90
871;DHT22;422;51.280;7.236;2022-09-17T15:56:04;13.30;99.90
871;DHT22;422;51.280;7.236;2022-09-17T15:58:49;12.90;99.90
871;DHT22;422;51.280;7.236;2022-09-17T16:04:28;12.70;99.90
871;DHT22;422;51.280;7.236;2022-09-17T16:07:00;12.60;99.90
871;DHT22;422;51.280;7.236;2022-09-17T16:09:42;12.70;99.90
871;DHT22;422;51.280;7.236;2022-09-17T16:12:14;12.40;99.90
871;DHT22;422;51.280;7.236;2022-09-17T16:14:52;11.90;99.90
871;DHT22;422;51.280;7.236;2022-09-17T16:17:41;11.60;99.90
871;DHT22;422;51.280;7.236;2022-09-17T16:20:15;11.50;99.90
871;DHT22;422;51.280;7.236;2022-09-17T16:22:46;11.30;99.90
871;DHT22;422;51.280;7.236;2022-09-17T16:25:14;11.20;99.90
871;DHT22;422;51.280;7.236;2022-09-17T16:27:49;11.30;99.90
871;DHT22;422;51.280;7.236;2022-09-17T16:30:19;11.30;99.90
871;DHT22;422;51.280;7.236;2022-09-17T16:32:51;11.20;99.90
871;DHT22;422;51.280;7.236;2022-09-17T16:35:23;11.10;99.90
871;DHT22;422;51.280;7.236;2022-09-17T16:37:55;11.10;99.90
871;DHT22;422;51.280;7.236;2022-09-17T16:40:24;11.00;99.90
871;DHT22;422;51.280;7.236;2022-09-17T16:42:54;10.80;99.90
871;DHT22;422;51.280;7.236;2022-09-17T16:45:21;10.60;99.90
871;DHT22;422;51.280;7.236;2022-09-17T16:47:48;10.70;1.00
871;DHT22;422;51.280;7.236;2022-09-17T16:50:16;10.60;1.00
871;DHT22;422;51.280;7.236;2022-09-17T16:52:44;10.70;1.00
871;DHT22;422;51.280;7.236;2022-09-17T16:55:13;10.70;1.00
871;DHT22;422;51.280;7.236;2022-09-17T16:57:40;10.70;1.00
871;DHT22;422;51.280;7.236;2022-09-17T17:00:12;10.80;1.00
871;DHT22;422;51.280;7.236;2022-09-17T17:02:50;11.10;1.00
871;DHT22;422;51.280;7.236;2022-09-17T17:05:19;11.00;1.00
871;DHT22;422;51.280;7.236;2022-09-17T17:07:50;11.10;99.90
871;DHT22;422;51.280;7.236;2022-09-17T17:10:23;11.00;99.90
871;DHT22;422;51.280;7.236;2022-09-17T17:12:51;11.10;99.90
871;DHT22;422;51.280;7.236;2022-09-17T17:15:19;11.00;99.90
871;DHT22;422;51.280;7.236;2022-09-17T17:17:51;10.80;99.90
871;DHT22;422;51.280;7.236;2022-09-17T17:20:19;10.80;99.90
871;DHT22;422;51.280;7.236;2022-09-17T17:22:48;10.70;99.90
871;DHT22;422;51.280;7.236;2022-09-17T17:25:17;10.80;1.00
871;DHT22;422;51.280;7.236;2022-09-17T17:27:44;10.80;99.90
871;DHT22;422;51.280;7.236;2022-09-17T17:30:14;10.70;99.90
871;DHT22;422;51.280;7.236;2022-09-17T17:32:48;10.60;99.90
871;DHT22;422;51.280;7.236;2022-09-17T17:35:16;10.60;1.00
871;DHT22;422;51.280;7.236;2022-09-17T17:37:44;10.60;1.00
871;DHT22;422;51.280;7.236;2022-09-17T17:40:12;10.50;1.00
871;DHT22;422;51.280;7.236;2022-09-17T17:42:39;10.50;1.00
871;DHT22;422;51.280;7.236;2022-09-17T17:45:09;10.50;1.00
871;DHT22;422;51.280;7.236;2022-09-17T17:47:37;10.40;1.00
871;DHT22;422;51.280;7.236;2022-09-17T17:50:07;10.40;1.00
871;DHT22;422;51.280;7.236;2022-09-17T17:52:35;10.40;1.00
871;DHT22;422;51.280;7.236;2022-09-17T17:55:04;10.30;1.00